Woodboro, Wisconsin
Current Conditions -  °F | °C
As of 2:53 AM on Wednesday 22 Oct 2014 (Local Time) from KRHI Reporting Station
Clear Clear  
Wind Chill: 24°   Ceiling: Unl
Heat Index: 29°   Visibility: 10mi
Dew Point: 27°   Wind: 5mph
Humidity: 92%   Direction: 130°SE
Pressure: 30.3"   Gusts: NA
Location:  45.6521°N, 89.3386°W
Report Text: KRHI 220753Z AUTO 13004KT 10SM CLR M02/M03 A3030 RMK AO2 SLP276 T10171028
Loading
Personal Weather Stations






























Interactive Weather Map
Tropical Storm Tracking
New forecast layout! Learn more

10-Day Weather Forecast

Advertisements
Track Severe Weather on mobile